createdAt,value
2022-08-10T00:00:23.062Z,4.03
2022-08-10T00:02:27.347Z,3.88
2022-08-10T00:04:31.689Z,3.70
2022-08-10T00:06:36.035Z,3.90
2022-08-10T00:08:40.598Z,3.95
2022-08-10T00:10:44.905Z,3.42
2022-08-10T00:12:49.255Z,3.55
2022-08-10T00:17:06.238Z,3.35
2022-08-10T00:19:10.531Z,3.33
2022-08-10T00:21:15.408Z,3.05
2022-08-10T00:23:20.041Z,3.80
2022-08-10T00:25:24.589Z,3.47
2022-08-10T00:27:53.035Z,3.65
2022-08-10T00:29:54.710Z,3.88
2022-08-10T00:31:59.691Z,3.38
2022-08-10T00:34:05.668Z,3.08
2022-08-10T00:36:11.130Z,3.25
2022-08-10T00:38:15.461Z,4.25
2022-08-10T00:40:19.919Z,3.78
2022-08-10T00:42:42.039Z,3.80
2022-08-10T00:44:50.033Z,3.35
2022-08-10T00:46:54.402Z,3.85
2022-08-10T00:49:00.657Z,3.50
2022-08-10T00:51:07.469Z,3.60
2022-08-10T00:53:11.990Z,3.80
2022-08-10T00:55:16.908Z,3.60
2022-08-10T00:57:21.740Z,3.65
2022-08-10T00:59:26.574Z,3.70
2022-08-10T01:02:09.376Z,3.33
2022-08-10T01:04:39.675Z,3.60
2022-08-10T01:06:31.511Z,3.83
2022-08-10T01:08:44.777Z,3.47
2022-08-10T01:11:00.464Z,3.75
2022-08-10T01:13:11.130Z,3.30
2022-08-10T01:15:21.574Z,3.08
2022-08-10T01:17:49.708Z,2.92
2022-08-10T01:20:03.399Z,3.70
2022-08-10T01:22:41.989Z,3.30
2022-08-10T01:25:22.508Z,3.30
2022-08-10T01:27:33.850Z,3.08
2022-08-10T01:29:55.152Z,3.55
2022-08-10T01:32:04.795Z,4.57
2022-08-10T01:34:16.293Z,3.28
2022-08-10T01:36:32.401Z,3.03
2022-08-10T01:38:41.519Z,3.80
2022-08-10T01:40:51.544Z,3.92
2022-08-10T01:43:08.627Z,3.55
2022-08-10T01:45:17.030Z,3.20
2022-08-10T01:47:41.956Z,3.40
2022-08-10T01:49:48.193Z,3.40
2022-08-10T01:51:56.445Z,2.33
2022-08-10T01:54:12.818Z,3.38
2022-08-10T01:56:20.677Z,2.47
2022-08-10T01:58:28.319Z,2.78
2022-08-10T02:00:41.027Z,2.72
2022-08-10T02:02:48.660Z,2.40
2022-08-10T02:04:56.032Z,2.78
2022-08-10T02:07:01.875Z,2.75
2022-08-10T02:09:08.888Z,2.53
2022-08-10T02:11:14.508Z,2.20
2022-08-10T02:13:40.297Z,2.90
2022-08-10T02:16:01.688Z,2.75
2022-08-10T02:18:08.895Z,2.38
2022-08-10T02:20:19.711Z,2.28
2022-08-10T02:22:45.807Z,2.00
2022-08-10T02:24:51.130Z,2.40
2022-08-10T02:27:07.702Z,2.00
2022-08-10T02:29:21.541Z,2.50
2022-08-10T02:31:28.512Z,2.20
2022-08-10T02:35:55.032Z,2.00
2022-08-10T02:38:06.140Z,2.20
2022-08-10T02:42:18.456Z,2.28
2022-08-10T02:45:22.445Z,2.45
2022-08-10T02:45:29.204Z,2.05
2022-08-10T02:47:50.964Z,2.50
2022-08-10T02:50:04.478Z,2.20
2022-08-10T02:52:13.803Z,2.50
2022-08-10T02:54:25.489Z,2.20
2022-08-10T02:56:37.135Z,3.33
2022-08-10T02:58:45.006Z,2.58
2022-08-10T03:00:53.088Z,2.72
2022-08-10T03:03:00.817Z,2.55
2022-08-10T03:05:08.694Z,2.67
2022-08-10T03:07:16.426Z,2.80
2022-08-10T03:09:21.752Z,2.47
2022-08-10T03:12:35.202Z,2.65
2022-08-10T03:13:59.578Z,2.70
2022-08-10T03:16:05.507Z,2.55
2022-08-10T03:18:13.352Z,2.88
2022-08-10T03:20:37.119Z,3.22
2022-08-10T03:22:46.537Z,2.78
2022-08-10T03:24:52.743Z,2.67
2022-08-10T03:26:58.686Z,2.63
2022-08-10T03:29:05.091Z,2.40
2022-08-10T03:31:09.663Z,2.80
2022-08-10T03:33:17.423Z,2.90
2022-08-10T03:35:23.378Z,2.70
2022-08-10T03:37:29.056Z,2.70
2022-08-10T03:39:33.832Z,2.67
2022-08-10T03:41:53.320Z,2.58
2022-08-10T03:43:59.812Z,2.67
2022-08-10T03:46:09.586Z,2.60
2022-08-10T03:48:16.347Z,2.88
2022-08-10T03:50:28.872Z,2.50
2022-08-10T03:52:46.625Z,2.60
2022-08-10T03:54:51.777Z,2.58
2022-08-10T03:56:56.791Z,2.85
2022-08-10T03:59:01.861Z,3.00
2022-08-10T04:01:07.043Z,2.47
2022-08-10T04:03:11.963Z,3.03
2022-08-10T04:05:18.083Z,3.00
2022-08-10T04:07:22.685Z,2.60
2022-08-10T04:09:53.945Z,3.03
2022-08-10T04:11:55.237Z,2.95
2022-08-10T04:13:59.599Z,2.83
2022-08-10T04:16:07.500Z,2.70
2022-08-10T04:18:12.075Z,2.80
2022-08-10T04:20:22.715Z,3.10
2022-08-10T04:22:29.701Z,3.20
2022-08-10T04:24:37.755Z,2.95
2022-08-10T04:26:42.510Z,3.30
2022-08-10T04:28:46.835Z,3.00
2022-08-10T04:30:53.827Z,3.35
2022-08-10T04:33:00.138Z,3.50
2022-08-10T04:35:06.083Z,3.00
2022-08-10T04:37:13.112Z,3.05
2022-08-10T04:39:18.247Z,3.30
2022-08-10T04:41:22.999Z,3.45
2022-08-10T04:43:27.980Z,3.30
2022-08-10T04:45:48.894Z,3.47
2022-08-10T04:48:02.970Z,3.90
2022-08-10T04:50:09.010Z,3.88
2022-08-10T04:52:15.698Z,3.55
2022-08-10T04:54:19.994Z,3.85
2022-08-10T04:56:31.691Z,3.08
2022-08-10T04:58:36.915Z,3.53
2022-08-10T05:00:41.936Z,3.50
2022-08-10T05:02:46.771Z,3.33
2022-08-10T05:04:51.313Z,3.92
2022-08-10T05:06:55.764Z,3.83
2022-08-10T05:09:02.585Z,3.30
2022-08-10T05:11:07.051Z,3.30
2022-08-10T05:13:11.545Z,3.97
2022-08-10T05:15:18.546Z,3.95
2022-08-10T05:17:23.155Z,5.47
2022-08-10T05:20:03.000Z,3.70
2022-08-10T05:22:02.214Z,4.28
2022-08-10T05:24:10.137Z,3.95
2022-08-10T05:26:14.597Z,3.50
2022-08-10T05:28:19.001Z,3.13
2022-08-10T05:30:30.496Z,3.85
2022-08-10T05:32:56.560Z,3.53
2022-08-10T05:35:00.746Z,3.92
2022-08-10T05:38:10.859Z,3.13
2022-08-10T05:39:42.191Z,3.95
2022-08-10T05:41:52.735Z,3.15
2022-08-10T05:43:58.144Z,3.22
2022-08-10T05:46:19.014Z,3.30
2022-08-10T05:48:54.415Z,3.33
2022-08-10T05:50:50.118Z,3.30
2022-08-10T05:52:54.701Z,3.10
2022-08-10T05:55:02.941Z,3.58
2022-08-10T05:57:08.326Z,3.58
2022-08-10T05:59:14.350Z,3.88
2022-08-10T06:01:23.581Z,3.55
2022-08-10T06:03:33.302Z,3.10
2022-08-10T06:07:48.025Z,3.42
2022-08-10T06:12:27.102Z,4.10
2022-08-10T06:14:53.050Z,3.92
2022-08-10T06:17:04.858Z,3.60
2022-08-10T06:19:09.124Z,3.20
2022-08-10T06:21:14.555Z,3.40
2022-08-10T06:23:19.524Z,3.00
2022-08-10T06:26:09.961Z,3.45
2022-08-10T06:27:50.216Z,3.17
2022-08-10T06:29:56.605Z,3.65
2022-08-10T06:32:02.266Z,4.18
2022-08-10T06:34:07.822Z,3.80
2022-08-10T06:36:14.176Z,3.85
2022-08-10T06:38:19.464Z,3.40
2022-08-10T06:40:26.286Z,4.75
2022-08-10T06:42:33.692Z,4.75
2022-08-10T06:44:45.209Z,3.78
2022-08-10T06:46:53.872Z,4.43
2022-08-10T06:49:02.474Z,5.03
2022-08-10T06:51:08.815Z,6.85
2022-08-10T06:53:15.441Z,3.83
2022-08-10T06:55:55.222Z,4.40
2022-08-10T06:57:59.771Z,4.38
2022-08-10T07:00:09.146Z,4.00
2022-08-10T07:02:17.087Z,3.85
2022-08-10T07:04:32.534Z,4.97
2022-08-10T07:06:39.771Z,3.55
2022-08-10T07:08:45.179Z,4.10
2022-08-10T07:10:50.164Z,3.30
2022-08-10T07:12:59.136Z,4.10
2022-08-10T07:15:06.627Z,4.10
2022-08-10T07:17:15.852Z,3.90
2022-08-10T07:19:22.693Z,4.00
2022-08-10T07:21:28.426Z,3.70
2022-08-10T07:23:57.558Z,3.40
2022-08-10T07:25:59.370Z,3.67
2022-08-10T07:28:05.353Z,3.42
2022-08-10T07:30:12.551Z,3.28
2022-08-10T07:32:17.231Z,3.92
2022-08-10T07:34:29.014Z,4.60
2022-08-10T07:36:36.870Z,4.90
2022-08-10T07:38:44.396Z,3.35
2022-08-10T07:40:52.069Z,3.63
2022-08-10T07:43:01.042Z,3.53
2022-08-10T07:45:06.679Z,4.20
2022-08-10T07:47:16.383Z,2.95
2022-08-10T07:49:24.997Z,3.45
2022-08-10T07:51:30.036Z,3.38
2022-08-10T07:53:40.051Z,4.45
2022-08-10T07:58:10.050Z,5.32
2022-08-10T08:00:15.465Z,4.97
2022-08-10T08:02:27.332Z,4.68
2022-08-10T08:04:33.489Z,5.50
2022-08-10T08:06:38.847Z,5.15
2022-08-10T08:08:49.198Z,5.10
2022-08-10T08:10:54.809Z,5.63
2022-08-10T08:13:01.494Z,5.45
2022-08-10T08:16:14.381Z,5.85
2022-08-10T08:17:36.288Z,5.97
2022-08-10T08:19:46.257Z,5.53
2022-08-10T08:24:10.493Z,5.07
2022-08-10T08:24:34.467Z,5.13
2022-08-10T08:26:42.151Z,5.68
2022-08-10T08:28:52.111Z,5.28
2022-08-10T08:30:57.755Z,5.82
2022-08-10T08:33:04.567Z,5.20
2022-08-10T08:35:11.451Z,5.75
2022-08-10T08:38:32.517Z,5.45
2022-08-10T08:39:47.174Z,4.83
2022-08-10T08:42:05.505Z,5.75
2022-08-10T08:44:21.074Z,5.63
2022-08-10T08:46:58.916Z,5.43
2022-08-10T08:50:08.479Z,5.60
2022-08-10T08:52:22.728Z,5.43
2022-08-10T08:54:39.938Z,4.85
2022-08-10T08:56:54.214Z,5.43
2022-08-10T08:59:19.227Z,4.95
2022-08-10T09:01:38.196Z,4.80
2022-08-10T09:04:02.045Z,5.43
2022-08-10T09:06:24.503Z,4.90
2022-08-10T09:08:46.603Z,5.15
2022-08-10T09:10:58.882Z,4.68
2022-08-10T09:13:08.121Z,3.42
2022-08-10T09:15:40.713Z,3.35
2022-08-10T09:17:56.438Z,4.13
2022-08-10T09:20:06.781Z,3.10
2022-08-10T09:22:23.715Z,3.35
2022-08-10T09:24:34.255Z,3.50
2022-08-10T09:26:48.140Z,3.05
2022-08-10T09:29:12.619Z,3.00
2022-08-10T09:31:25.979Z,3.33
2022-08-10T09:36:21.610Z,2.92
2022-08-10T09:36:33.428Z,3.28
2022-08-10T09:38:49.056Z,3.45
2022-08-10T09:41:09.142Z,3.25
2022-08-10T09:43:26.814Z,2.83
2022-08-10T09:45:40.755Z,3.20
2022-08-10T09:48:02.298Z,3.75
2022-08-10T09:50:20.455Z,3.38
2022-08-10T09:52:34.387Z,3.55
2022-08-10T09:54:54.725Z,3.10
2022-08-10T09:57:44.876Z,3.65
2022-08-10T10:00:00.838Z,3.22
2022-08-10T10:02:22.821Z,3.85
2022-08-10T10:04:34.830Z,3.70
2022-08-10T10:06:45.187Z,3.15
2022-08-10T10:09:10.251Z,3.17
2022-08-10T10:11:22.391Z,3.42
2022-08-10T10:13:41.629Z,3.00
2022-08-10T10:16:09.844Z,3.70
2022-08-10T10:18:30.422Z,3.70
2022-08-10T10:20:40.686Z,3.08
2022-08-10T10:23:00.181Z,3.28
2022-08-10T10:25:20.799Z,3.67
2022-08-10T10:27:36.632Z,3.35
2022-08-10T10:29:58.486Z,3.40
2022-08-10T10:32:09.917Z,3.50
2022-08-10T10:34:22.584Z,3.50
2022-08-10T10:36:36.427Z,3.17
2022-08-10T10:38:42.968Z,3.63
2022-08-10T10:40:53.397Z,3.03
2022-08-10T10:43:08.927Z,3.75
2022-08-10T10:45:20.006Z,3.35
2022-08-10T10:47:46.500Z,3.63
2022-08-10T10:49:59.329Z,3.60
2022-08-10T10:52:16.191Z,3.63
2022-08-10T10:54:36.019Z,3.22
2022-08-10T10:59:55.390Z,3.53
2022-08-10T11:01:55.262Z,4.25
2022-08-10T11:04:15.502Z,3.88
2022-08-10T11:06:39.529Z,3.72
2022-08-10T11:08:52.012Z,3.90
2022-08-10T11:11:00.909Z,3.45
2022-08-10T11:14:27.174Z,3.60
2022-08-10T11:16:02.763Z,4.07
2022-08-10T11:18:14.015Z,3.60
2022-08-10T11:20:28.579Z,3.55
2022-08-10T11:22:38.003Z,3.60
2022-08-10T11:24:50.545Z,4.07
2022-08-10T11:27:02.791Z,3.47
2022-08-10T11:29:15.434Z,3.75
2022-08-10T11:31:28.449Z,3.42
2022-08-10T11:34:11.467Z,3.85
2022-08-10T11:36:27.162Z,3.90
2022-08-10T11:38:52.012Z,4.18
2022-08-10T11:42:06.754Z,4.97
2022-08-10T11:43:39.403Z,4.50
2022-08-10T11:45:52.434Z,9.98
2022-08-10T11:48:09.687Z,4.53
2022-08-10T11:50:22.067Z,5.72
2022-08-10T11:52:35.775Z,4.40
2022-08-10T11:54:44.987Z,4.90
2022-08-10T11:57:01.331Z,5.07
2022-08-10T11:59:24.264Z,4.70
2022-08-10T12:01:31.922Z,4.68
2022-08-10T12:03:40.453Z,4.93
2022-08-10T12:05:51.916Z,4.90
2022-08-10T12:09:23.939Z,4.70
2022-08-10T12:10:27.881Z,4.88
2022-08-10T12:12:38.115Z,4.75
2022-08-10T12:14:49.753Z,5.00
2022-08-10T12:17:00.657Z,5.32
2022-08-10T12:19:16.473Z,5.22
2022-08-10T12:21:24.579Z,5.13
2022-08-10T12:23:39.319Z,5.05
2022-08-10T12:25:57.679Z,5.50
2022-08-10T12:28:11.007Z,5.03
2022-08-10T12:30:17.545Z,4.60
2022-08-10T12:32:32.485Z,4.93
2022-08-10T12:34:50.127Z,5.20
2022-08-10T12:37:05.804Z,5.40
2022-08-10T12:39:17.135Z,5.38
2022-08-10T12:41:41.598Z,5.50
2022-08-10T12:44:06.543Z,5.70
2022-08-10T12:46:19.765Z,6.18
2022-08-10T12:48:31.583Z,6.25
2022-08-10T12:50:43.127Z,5.90
2022-08-10T12:52:57.513Z,5.65
2022-08-10T12:55:06.525Z,5.90
2022-08-10T12:57:13.711Z,6.30
2022-08-10T12:59:19.676Z,5.90
2022-08-10T13:01:27.678Z,6.68
2022-08-10T13:04:20.693Z,6.47
2022-08-10T13:06:22.628Z,6.53
2022-08-10T13:08:44.774Z,7.22
2022-08-10T13:11:00.973Z,6.60
2022-08-10T13:13:05.696Z,6.65
2022-08-10T13:15:43.146Z,8.25
2022-08-10T13:17:42.698Z,7.28
2022-08-10T13:19:55.414Z,7.60
2022-08-10T13:22:05.236Z,6.28
2022-08-10T13:24:13.078Z,7.00
2022-08-10T13:26:21.560Z,6.85
2022-08-10T13:28:36.951Z,7.22
2022-08-10T13:30:44.616Z,6.20
2022-08-10T13:32:55.987Z,7.78
2022-08-10T13:35:04.969Z,7.78
2022-08-10T13:37:11.567Z,7.60
2022-08-10T13:39:18.323Z,6.93
2022-08-10T13:41:27.045Z,5.97
2022-08-10T13:43:31.445Z,6.90
2022-08-10T13:45:42.310Z,7.03
2022-08-10T13:47:52.121Z,7.35
2022-08-10T13:50:00.616Z,7.45
2022-08-10T13:52:12.774Z,7.23
2022-08-10T13:54:19.572Z,4.30
2022-08-10T13:56:24.947Z,3.17
2022-08-10T13:58:31.886Z,3.10
2022-08-10T14:00:39.973Z,3.30
2022-08-10T14:02:49.665Z,3.22
2022-08-10T14:07:01.604Z,3.13
2022-08-10T14:09:10.956Z,2.95
2022-08-10T14:11:19.651Z,2.60
2022-08-10T14:13:25.945Z,2.77
2022-08-10T14:15:35.482Z,3.25
2022-08-10T14:17:44.727Z,2.67
2022-08-10T14:19:58.936Z,2.45
2022-08-10T14:22:03.971Z,2.60
2022-08-10T14:24:20.376Z,2.88
2022-08-10T14:26:29.786Z,3.47
2022-08-10T14:28:37.261Z,2.75
2022-08-10T14:30:44.109Z,2.70
2022-08-10T14:32:50.592Z,2.65
2022-08-10T14:36:15.578Z,2.90
2022-08-10T14:37:25.802Z,2.60
2022-08-10T14:39:35.841Z,2.58
2022-08-10T14:42:02.916Z,3.20
2022-08-10T14:44:09.224Z,2.97
2022-08-10T14:46:20.890Z,3.20
2022-08-10T14:48:32.991Z,2.67
2022-08-10T14:50:37.979Z,3.20
2022-08-10T14:53:09.635Z,2.20
2022-08-10T14:55:19.359Z,2.47
2022-08-10T14:58:19.534Z,2.55
2022-08-10T15:00:23.266Z,2.75
2022-08-10T15:02:39.093Z,2.75
2022-08-10T15:04:46.891Z,2.63
2022-08-10T15:06:57.609Z,2.83
2022-08-10T15:09:12.337Z,2.20
2022-08-10T15:12:14.127Z,2.67
2022-08-10T15:14:38.769Z,2.25
2022-08-10T15:16:38.536Z,2.60
2022-08-10T15:18:58.207Z,3.20
2022-08-10T15:21:17.017Z,2.38
2022-08-10T15:23:30.975Z,2.22
2022-08-10T15:25:57.641Z,2.47
2022-08-10T15:28:10.828Z,2.25
2022-08-10T15:30:17.334Z,2.30
2022-08-10T15:32:41.658Z,2.60
2022-08-10T15:35:05.887Z,2.35
2022-08-10T15:37:40.699Z,2.00
2022-08-10T15:40:21.698Z,2.00
2022-08-10T15:42:09.134Z,1.95
2022-08-10T15:44:37.540Z,1.90
2022-08-10T15:46:51.747Z,1.92
2022-08-10T15:49:08.781Z,2.00
2022-08-10T15:51:22.160Z,2.15
2022-08-10T15:53:48.973Z,2.00
2022-08-10T15:55:58.381Z,1.95
2022-08-10T15:58:08.947Z,2.42
2022-08-10T16:00:17.943Z,2.00
2022-08-10T16:02:28.938Z,1.75
2022-08-10T16:04:36.812Z,2.03
2022-08-10T16:06:44.704Z,1.70
2022-08-10T16:08:55.915Z,1.90
2022-08-10T16:11:06.206Z,1.83
2022-08-10T16:13:50.518Z,2.60
2022-08-10T16:15:41.107Z,1.43
2022-08-10T16:17:54.527Z,1.98
2022-08-10T16:20:01.583Z,2.45
2022-08-10T16:22:35.289Z,2.17
2022-08-10T16:24:38.391Z,1.70
2022-08-10T16:26:48.107Z,1.50
2022-08-10T16:28:59.154Z,1.48
2022-08-10T16:31:08.363Z,2.22
2022-08-10T16:33:18.339Z,1.85
2022-08-10T16:35:24.713Z,1.55
2022-08-10T16:37:58.410Z,1.60
2022-08-10T16:40:02.877Z,1.77
2022-08-10T16:42:20.352Z,1.90
2022-08-10T16:44:30.500Z,1.60
2022-08-10T16:46:35.627Z,1.60
2022-08-10T16:48:49.476Z,1.83
2022-08-10T16:50:58.207Z,1.30
2022-08-10T16:53:03.788Z,1.80
2022-08-10T16:55:23.654Z,1.48
2022-08-10T16:57:31.196Z,1.52
2022-08-10T16:59:39.755Z,2.50
2022-08-10T17:01:51.327Z,1.63
2022-08-10T17:04:09.945Z,1.50
2022-08-10T17:06:20.961Z,1.30
2022-08-10T17:08:26.468Z,1.33
2022-08-10T17:10:32.863Z,1.83
2022-08-10T17:12:40.370Z,1.63
2022-08-10T17:14:45.429Z,1.60
2022-08-10T17:17:00.460Z,1.40
2022-08-10T17:19:13.140Z,1.58
2022-08-10T17:21:21.917Z,1.40
2022-08-10T17:23:28.791Z,1.40
2022-08-10T17:25:48.586Z,1.52
2022-08-10T17:28:04.050Z,1.52
2022-08-10T17:30:32.242Z,1.55
2022-08-10T17:32:44.959Z,1.63
2022-08-10T17:34:57.267Z,1.70
2022-08-10T17:37:06.720Z,1.48
2022-08-10T17:39:13.932Z,1.50
2022-08-10T17:41:24.750Z,1.60
2022-08-10T17:44:00.707Z,1.58
2022-08-10T17:45:56.947Z,1.77
2022-08-10T17:48:06.684Z,1.40
2022-08-10T17:52:22.810Z,2.05
2022-08-10T17:54:31.284Z,1.80
2022-08-10T17:56:38.049Z,1.98
2022-08-10T17:58:49.781Z,2.25
2022-08-10T18:00:57.482Z,2.28
2022-08-10T18:03:25.285Z,2.00
2022-08-10T18:05:35.061Z,1.80
2022-08-10T18:07:45.621Z,2.40
2022-08-10T18:09:52.901Z,1.50
2022-08-10T18:12:02.036Z,1.55
2022-08-10T18:14:09.956Z,1.60
2022-08-10T18:16:16.599Z,1.85
2022-08-10T18:18:24.307Z,1.75
2022-08-10T18:20:35.985Z,1.75
2022-08-10T18:22:45.537Z,1.85
2022-08-10T18:24:52.097Z,1.77
2022-08-10T18:27:09.108Z,2.15
2022-08-10T18:29:18.689Z,2.58
2022-08-10T18:31:26.388Z,1.80
2022-08-10T18:33:35.724Z,2.17
2022-08-10T18:35:43.008Z,2.50
2022-08-10T18:37:50.313Z,2.20
2022-08-10T18:40:03.685Z,2.15
2022-08-10T18:42:16.908Z,2.80
2022-08-10T18:44:55.632Z,1.90
2022-08-10T18:47:03.446Z,2.15
2022-08-10T18:49:14.106Z,1.83
2022-08-10T18:51:26.273Z,1.80
2022-08-10T18:53:36.097Z,1.70
2022-08-10T18:55:46.231Z,1.92
2022-08-10T18:58:22.797Z,1.65
2022-08-10T19:00:34.995Z,1.48
2022-08-10T19:03:10.210Z,1.60
2022-08-10T19:05:31.179Z,1.38
2022-08-10T19:08:03.368Z,1.45
2022-08-10T19:10:21.692Z,1.48
2022-08-10T19:12:41.107Z,1.48
2022-08-10T19:14:59.070Z,1.27
2022-08-10T19:17:13.764Z,1.40
2022-08-10T19:19:38.437Z,1.65
2022-08-10T19:21:47.810Z,1.52
2022-08-10T19:24:06.156Z,1.40
2022-08-10T19:26:43.969Z,2.15
2022-08-10T19:28:59.461Z,1.30
2022-08-10T19:31:11.367Z,1.40
2022-08-10T19:33:26.358Z,1.77
2022-08-10T19:36:03.431Z,1.52
2022-08-10T19:38:17.332Z,2.13
2022-08-10T19:40:46.131Z,1.85
2022-08-10T19:42:56.571Z,1.50
2022-08-10T19:45:58.214Z,1.80
2022-08-10T19:47:46.830Z,1.90
2022-08-10T19:49:56.715Z,1.52
2022-08-10T19:54:21.353Z,1.27
2022-08-10T19:56:35.003Z,1.35
2022-08-10T19:58:47.217Z,1.55
2022-08-10T20:00:58.723Z,1.40
2022-08-10T20:03:12.419Z,1.60
2022-08-10T20:05:21.794Z,1.40
2022-08-10T20:07:35.344Z,1.50
2022-08-10T20:09:47.340Z,1.65
2022-08-10T20:12:00.098Z,1.80
2022-08-10T20:14:21.522Z,1.40
2022-08-10T20:16:38.481Z,1.65
2022-08-10T20:18:45.377Z,1.60
2022-08-10T20:20:51.089Z,1.65
2022-08-10T20:23:04.586Z,1.88
2022-08-10T20:25:14.223Z,1.63
2022-08-10T20:27:58.160Z,1.58
2022-08-10T20:29:59.425Z,2.25
2022-08-10T20:32:06.891Z,1.83
2022-08-10T20:34:24.076Z,1.83
2022-08-10T20:36:32.455Z,1.60
2022-08-10T20:38:44.769Z,1.30
2022-08-10T20:40:55.383Z,1.73
2022-08-10T20:45:21.848Z,1.70
2022-08-10T20:47:54.831Z,1.75
2022-08-10T20:50:11.249Z,2.05
2022-08-10T20:52:16.258Z,2.00
2022-08-10T20:54:29.573Z,1.80
2022-08-10T20:56:44.132Z,1.60
2022-08-10T20:59:20.034Z,2.50
2022-08-10T21:02:07.482Z,1.83
2022-08-10T21:04:13.617Z,1.70
2022-08-10T21:06:44.495Z,1.92
2022-08-10T21:08:58.502Z,1.50
2022-08-10T21:11:09.580Z,1.60
2022-08-10T21:13:33.187Z,1.73
2022-08-10T21:16:02.178Z,1.58
2022-08-10T21:18:22.416Z,1.63
2022-08-10T21:20:47.677Z,1.63
2022-08-10T21:23:05.312Z,1.80
2022-08-10T21:25:15.379Z,1.60
2022-08-10T21:27:36.408Z,1.58
2022-08-10T21:29:56.006Z,1.80
2022-08-10T21:32:18.880Z,1.60
2022-08-10T21:34:54.440Z,1.80
2022-08-10T21:37:08.002Z,2.03
2022-08-10T21:39:20.490Z,1.77
2022-08-10T21:41:58.420Z,1.67
2022-08-10T21:44:34.632Z,1.63
2022-08-10T21:47:06.400Z,1.98
2022-08-10T21:49:39.304Z,1.92
2022-08-10T21:52:07.253Z,2.10
2022-08-10T21:54:35.839Z,1.67
2022-08-10T21:57:07.895Z,1.95
2022-08-10T21:59:42.223Z,2.00
2022-08-10T22:02:09.866Z,2.33
2022-08-10T22:04:33.277Z,2.00
2022-08-10T22:06:59.082Z,1.90
2022-08-10T22:09:26.721Z,2.05
2022-08-10T22:12:04.770Z,1.95
2022-08-10T22:14:33.557Z,1.85
2022-08-10T22:17:04.000Z,1.73
2022-08-10T22:19:27.096Z,1.77
2022-08-10T22:22:02.056Z,2.05
2022-08-10T22:24:41.314Z,1.58
2022-08-10T22:27:46.070Z,1.75
2022-08-10T22:30:07.122Z,2.10
2022-08-10T22:32:39.086Z,1.80
2022-08-10T22:35:21.291Z,1.63
2022-08-10T22:37:56.148Z,2.10
2022-08-10T22:40:23.337Z,2.08
2022-08-10T22:42:59.266Z,1.80
2022-08-10T22:45:33.554Z,1.80
2022-08-10T22:47:55.527Z,1.67
2022-08-10T22:50:03.456Z,1.70
2022-08-10T22:52:20.232Z,1.83
2022-08-10T22:54:50.203Z,1.90
2022-08-10T22:57:11.917Z,1.90
2022-08-10T22:59:16.428Z,1.92
2022-08-10T23:03:56.857Z,1.90
2022-08-10T23:06:07.677Z,2.00
2022-08-10T23:08:29.408Z,1.95
2022-08-10T23:10:40.344Z,1.90
2022-08-10T23:12:49.798Z,2.08
2022-08-10T23:15:13.854Z,2.10
2022-08-10T23:18:00.498Z,1.90
2022-08-10T23:20:09.633Z,1.90
2022-08-10T23:22:16.744Z,2.15
2022-08-10T23:24:27.176Z,2.17
2022-08-10T23:26:34.146Z,1.67
2022-08-10T23:28:59.863Z,1.88
2022-08-10T23:31:11.228Z,1.83
2022-08-10T23:36:08.834Z,2.47
2022-08-10T23:37:49.244Z,2.22
2022-08-10T23:39:55.391Z,2.08
2022-08-10T23:42:07.442Z,2.22
2022-08-10T23:44:13.062Z,2.40
2022-08-10T23:46:26.425Z,2.28
2022-08-10T23:48:34.327Z,2.03
2022-08-10T23:50:40.640Z,2.67
2022-08-10T23:53:00.726Z,2.00
2022-08-10T23:55:09.608Z,2.30
2022-08-10T23:57:18.981Z,1.85
2022-08-10T23:59:26.333Z,2.30
